Time;durP1;ratioP1;P1;durP2;ratioP2;P2;SDS_P1;SDS_P2;PMS_P1;PMS_P2;Temp;Humidity;BMP_temperature;BMP_pressure;BME280_temperature;BME280_humidity;BME280_pressure;Samples;Min_cycle;Max_cycle;Signal;HPM_P1;HPM_P2
2022/03/28 00:00:56;;;;;;;35.13;16.83;;;6.50;73.90;;;;;;5252979;28;20060;-71
2022/03/28 00:03:29;;;;;;;29.98;16.13;;;6.50;73.90;;;;;;5238413;28;20569;-72
2022/03/28 00:06:02;;;;;;;27.23;14.23;;;6.30;74.00;;;;;;5251172;28;20055;-71
2022/03/28 00:08:36;;;;;;;29.08;15.63;;;6.30;74.60;;;;;;5254796;28;20049;-72
2022/03/28 00:11:09;;;;;;;36.83;16.63;;;6.30;74.80;;;;;;5252353;28;20056;-71
2022/03/28 00:13:41;;;;;;;31.40;15.27;;;6.30;74.70;;;;;;5255876;28;20078;-71
2022/03/28 00:16:14;;;;;;;34.85;16.83;;;6.30;74.80;;;;;;5255634;28;20060;-71
2022/03/28 00:18:46;;;;;;;32.20;15.55;;;6.20;74.90;;;;;;5255995;28;20678;-71
2022/03/28 00:21:19;;;;;;;30.02;15.43;;;6.20;75.00;;;;;;5251522;28;20054;-71
2022/03/28 00:23:52;;;;;;;28.17;15.60;;;6.10;75.10;;;;;;5249820;28;20040;-71
2022/03/28 00:26:24;;;;;;;33.95;16.17;;;6.20;75.20;;;;;;5250201;28;20685;-73
2022/03/28 00:28:57;;;;;;;35.95;15.57;;;6.20;75.40;;;;;;5247486;28;20067;-71
2022/03/28 00:31:30;;;;;;;31.52;15.57;;;6.10;75.50;;;;;;5233448;28;20078;-71
2022/03/28 00:34:02;;;;;;;26.03;14.37;;;6.10;75.50;;;;;;5233156;28;20071;-72
2022/03/28 00:36:35;;;;;;;31.13;15.85;;;6.10;75.50;;;;;;5239330;28;20299;-71
2022/03/28 00:39:07;;;;;;;30.52;15.55;;;6.10;75.50;;;;;;5249809;28;20555;-71
2022/03/28 00:41:40;;;;;;;30.90;16.08;;;6.10;75.50;;;;;;5233976;28;20380;-71
2022/03/28 00:44:12;;;;;;;36.28;16.80;;;6.10;75.70;;;;;;5252452;28;20036;-71
2022/03/28 00:46:45;;;;;;;32.70;17.55;;;6.10;75.80;;;;;;5234742;28;20110;-71
2022/03/28 00:49:18;;;;;;;32.10;16.27;;;6.00;76.60;;;;;;5218445;28;20051;-71
2022/03/28 00:51:52;;;;;;;30.48;15.25;;;6.00;75.90;;;;;;5256362;28;20040;-72
2022/03/28 00:54:24;;;;;;;27.92;15.40;;;5.90;76.20;;;;;;5252602;28;20044;-72
2022/03/28 00:56:57;;;;;;;26.83;14.65;;;5.90;76.20;;;;;;5249897;28;20040;-72
2022/03/28 00:59:32;;;;;;;28.15;15.02;;;5.90;76.20;;;;;;5251412;28;20051;-72
2022/03/28 01:02:06;;;;;;;27.42;15.18;;;5.90;76.20;;;;;;5252826;28;20052;-72
2022/03/28 01:04:39;;;;;;;29.02;15.38;;;5.90;76.50;;;;;;5236295;28;20056;-72
2022/03/28 01:07:12;;;;;;;31.13;16.08;;;5.80;76.50;;;;;;5233603;28;21242;-72
2022/03/28 01:09:45;;;;;;;35.72;16.08;;;5.80;76.60;;;;;;5250305;28;20509;-71
2022/03/28 01:12:17;;;;;;;37.08;16.02;;;5.70;76.70;;;;;;5255318;28;20052;-71
2022/03/28 01:14:50;;;;;;;32.80;15.43;;;5.70;77.00;;;;;;5252114;28;20056;-71
2022/03/28 01:20:14;;;;;;;28.90;15.57;;;5.60;77.40;;;;;;5248724;28;20051;-71
2022/03/28 01:22:47;;;;;;;29.83;15.23;;;5.50;77.90;;;;;;5253627;28;20052;-71
2022/03/28 01:25:24;;;;;;;34.47;17.00;;;5.50;77.90;;;;;;5248350;28;20041;-71
2022/03/28 01:27:59;;;;;;;29.77;15.35;;;5.50;78.00;;;;;;5218041;28;20044;-70
2022/03/28 01:30:32;;;;;;;30.83;14.80;;;5.50;78.20;;;;;;5235974;28;20036;-71
2022/03/28 01:33:05;;;;;;;27.92;14.90;;;5.40;78.30;;;;;;5251009;28;20052;-70
2022/03/28 01:35:40;;;;;;;33.10;15.43;;;5.40;78.20;;;;;;5230548;28;20052;-71
2022/03/28 01:38:14;;;;;;;31.27;14.95;;;5.40;78.40;;;;;;5255185;28;20357;-71
2022/03/28 01:40:51;;;;;;;29.40;15.80;;;5.40;78.50;;;;;;5249140;28;20043;-72
2022/03/28 01:43:24;;;;;;;34.88;15.80;;;5.30;78.50;;;;;;5250536;28;20040;-71
2022/03/28 01:45:56;;;;;;;29.75;15.18;;;5.40;78.70;;;;;;5249549;28;20044;-71
2022/03/28 01:48:29;;;;;;;36.78;16.15;;;5.40;78.60;;;;;;5247497;28;20036;-72
2022/03/28 01:51:02;;;;;;;29.73;15.98;;;5.40;78.70;;;;;;5255106;28;20067;-70
2022/03/28 01:53:34;;;;;;;29.23;15.35;;;5.40;78.70;;;;;;5250681;28;20047;-71
2022/03/28 01:56:07;;;;;;;28.17;14.90;;;5.40;78.70;;;;;;5251627;28;20051;-71
2022/03/28 01:58:39;;;;;;;27.98;15.73;;;5.30;78.70;;;;;;5251041;28;20055;-72
2022/03/28 02:01:11;;;;;;;32.55;14.88;;;5.40;78.80;;;;;;5225639;28;20048;-72
2022/03/28 02:03:47;;;;;;;31.27;15.55;;;5.30;78.70;;;;;;5246591;28;20119;-71
2022/03/28 02:06:20;;;;;;;32.00;15.85;;;5.40;78.80;;;;;;5236943;28;20041;-70
2022/03/28 02:08:53;;;;;;;30.60;15.88;;;5.40;78.90;;;;;;5247072;28;20362;-71
2022/03/28 02:11:26;;;;;;;29.55;15.27;;;5.40;78.90;;;;;;5249733;28;20495;-72
2022/03/28 02:13:58;;;;;;;32.72;16.17;;;5.40;78.60;;;;;;5247895;28;20094;-70
2022/03/28 02:16:30;;;;;;;29.02;14.50;;;5.40;78.70;;;;;;5248913;28;20047;-70
2022/03/28 02:19:03;;;;;;;34.33;16.48;;;5.30;79.40;;;;;;5243288;28;20049;-71
2022/03/28 02:21:36;;;;;;;40.50;16.95;;;5.30;79.50;;;;;;5250171;28;20067;-71
2022/03/28 02:24:08;;;;;;;32.70;15.95;;;5.00;79.90;;;;;;5252635;28;20066;-71
2022/03/28 02:26:41;;;;;;;39.15;16.67;;;5.00;80.60;;;;;;5250100;28;20084;-70
2022/03/28 02:29:13;;;;;;;36.10;16.60;;;5.10;80.80;;;;;;5228212;28;20090;-70
2022/03/28 02:31:46;;;;;;;32.08;14.80;;;5.00;81.00;;;;;;5241382;28;20498;-71
2022/03/28 02:34:18;;;;;;;34.97;16.83;;;4.90;81.10;;;;;;5232248;28;20047;-71
2022/03/28 02:36:51;;;;;;;37.08;17.30;;;4.90;81.10;;;;;;5249146;28;20169;-72
2022/03/28 02:39:23;;;;;;;34.67;16.88;;;4.90;81.30;;;;;;5245783;28;20460;-72
2022/03/28 02:41:56;;;;;;;36.15;17.00;;;4.90;81.30;;;;;;5224600;28;20052;-72
2022/03/28 02:44:28;;;;;;;38.85;17.45;;;4.90;81.40;;;;;;5227017;28;20048;-72
2022/03/28 02:47:01;;;;;;;34.40;17.13;;;4.80;81.90;;;;;;5209254;28;20044;-71
2022/03/28 02:49:34;;;;;;;30.45;17.35;;;4.80;82.10;;;;;;5248327;28;20368;-70
2022/03/28 02:52:07;;;;;;;34.30;15.73;;;4.80;82.20;;;;;;5229607;28;20609;-72
2022/03/28 02:54:39;;;;;;;29.25;15.15;;;4.70;82.50;;;;;;5242232;28;20415;-71
2022/03/28 02:57:12;;;;;;;28.98;15.77;;;4.70;82.80;;;;;;5221662;28;20762;-72
2022/03/28 02:59:44;;;;;;;35.50;16.73;;;4.70;82.40;;;;;;5239024;28;20045;-72
2022/03/28 03:02:17;;;;;;;31.13;16.30;;;4.70;82.70;;;;;;5250457;28;20044;-72
2022/03/28 03:04:49;;;;;;;31.27;16.35;;;4.60;82.80;;;;;;5249571;28;20052;-72
2022/03/28 03:07:22;;;;;;;29.77;16.15;;;4.50;83.00;;;;;;5270072;22;20059;-73
2022/03/28 03:09:54;;;;;;;32.50;15.43;;;4.50;83.30;;;;;;5257984;28;20055;-73
2022/03/28 03:12:27;;;;;;;31.25;15.35;;;4.50;83.00;;;;;;5253582;28;20048;-74
2022/03/28 03:14:59;;;;;;;29.05;15.65;;;4.60;82.40;;;;;;5239827;28;20044;-73
2022/03/28 03:17:32;;;;;;;36.90;16.48;;;4.60;82.10;;;;;;5232427;28;20415;-73
2022/03/28 03:20:05;;;;;;;29.25;15.85;;;4.50;82.30;;;;;;5234087;28;20086;-73
2022/03/28 03:22:38;;;;;;;32.15;16.73;;;4.40;82.60;;;;;;5232238;28;20046;-73
2022/03/28 03:25:10;;;;;;;32.70;16.85;;;4.40;83.30;;;;;;5233752;28;20041;-73
2022/03/28 03:27:43;;;;;;;38.60;17.25;;;4.30;83.70;;;;;;5218395;28;20512;-73
2022/03/28 03:30:16;;;;;;;29.47;15.80;;;4.30;84.00;;;;;;5238064;28;20044;-73
2022/03/28 03:32:48;;;;;;;32.35;15.35;;;4.30;84.00;;;;;;5237568;28;20048;-73
2022/03/28 03:35:21;;;;;;;30.17;15.63;;;4.20;84.20;;;;;;5216390;28;20523;-73
2022/03/28 03:37:54;;;;;;;29.77;16.08;;;4.10;84.60;;;;;;5234500;28;20041;-73
2022/03/28 03:40:26;;;;;;;29.88;16.23;;;4.10;84.70;;;;;;5237548;28;20048;-73
2022/03/28 03:42:59;;;;;;;29.90;15.95;;;4.10;85.10;;;;;;5238244;28;20033;-74
2022/03/28 03:45:31;;;;;;;27.70;15.25;;;4.00;85.30;;;;;;5219025;28;20052;-73
2022/03/28 03:48:04;;;;;;;35.45;16.23;;;3.90;85.40;;;;;;5239107;28;20384;-73
2022/03/28 03:50:37;;;;;;;32.73;15.80;;;4.00;85.40;;;;;;5224629;28;20060;-73
2022/03/28 03:53:10;;;;;;;37.53;15.95;;;3.90;85.40;;;;;;5239202;28;20065;-73
2022/03/28 03:55:42;;;;;;;32.03;16.17;;;3.90;85.50;;;;;;5236331;28;20040;-73
2022/03/28 03:58:15;;;;;;;34.15;16.35;;;3.80;85.60;;;;;;5241052;28;20044;-73
2022/03/28 04:00:47;;;;;;;36.15;19.08;;;3.70;86.00;;;;;;5238478;28;20045;-74
2022/03/28 04:03:20;;;;;;;29.70;16.55;;;3.60;86.60;;;;;;5235383;28;20044;-75
2022/03/28 04:05:52;;;;;;;37.72;16.08;;;3.50;87.30;;;;;;5239061;28;20068;-73
2022/03/28 04:08:26;;;;;;;30.30;15.88;;;3.40;87.80;;;;;;5238115;28;20044;-73
2022/03/28 04:10:58;;;;;;;29.85;16.33;;;3.30;88.30;;;;;;5215656;28;20052;-74
2022/03/28 04:13:32;;;;;;;32.22;16.55;;;3.30;88.40;;;;;;5205484;28;20048;-74
2022/03/28 04:16:05;;;;;;;33.22;17.08;;;3.40;88.50;;;;;;5208153;28;20067;-74
2022/03/28 04:18:38;;;;;;;35.53;17.73;;;3.40;88.60;;;;;;5225105;28;20059;-74
2022/03/28 04:21:11;;;;;;;27.27;15.38;;;3.30;88.20;;;;;;5240134;28;20423;-73
2022/03/28 04:23:43;;;;;;;32.28;16.98;;;3.20;88.50;;;;;;5239962;28;20037;-73
2022/03/28 04:26:16;;;;;;;30.75;16.00;;;3.20;89.00;;;;;;5235831;28;20037;-73
2022/03/28 04:28:48;;;;;;;35.70;16.75;;;3.30;88.60;;;;;;5221665;28;20064;-73
2022/03/28 04:31:21;;;;;;;32.70;16.73;;;3.20;88.90;;;;;;5234417;28;20047;-73
2022/03/28 04:33:54;;;;;;;33.43;15.87;;;3.20;89.10;;;;;;5237923;28;20055;-73
2022/03/28 04:36:26;;;;;;;34.73;16.10;;;3.10;89.50;;;;;;5216762;28;20045;-73
2022/03/28 04:39:00;;;;;;;36.00;15.70;;;3.10;89.90;;;;;;5223208;28;20309;-74
2022/03/28 04:41:33;;;;;;;32.97;17.58;;;3.00;90.50;;;;;;5218481;28;20056;-73
2022/03/28 04:44:05;;;;;;;35.67;16.55;;;3.00;90.70;;;;;;5236693;28;20045;-73
2022/03/28 04:46:38;;;;;;;32.33;15.75;;;3.10;90.70;;;;;;5235577;28;20051;-74
2022/03/28 04:49:14;;;;;;;37.97;17.23;;;3.20;90.50;;;;;;5233691;28;20386;-73
2022/03/28 04:51:46;;;;;;;35.00;17.80;;;3.20;90.40;;;;;;5237154;28;20045;-73
2022/03/28 04:54:19;;;;;;;33.83;17.02;;;3.20;90.50;;;;;;5236877;28;20055;-73
2022/03/28 04:56:51;;;;;;;32.17;16.58;;;3.20;90.60;;;;;;5237116;28;20052;-73
2022/03/28 04:59:23;;;;;;;31.50;15.57;;;3.20;90.80;;;;;;5223458;28;20033;-73
2022/03/28 05:01:56;;;;;;;35.88;17.42;;;3.30;90.50;;;;;;5219234;28;20394;-73
2022/03/28 05:04:28;;;;;;;34.17;16.17;;;3.30;90.40;;;;;;5235688;28;20041;-73
2022/03/28 05:07:01;;;;;;;35.42;16.35;;;3.30;90.40;;;;;;5218820;28;20044;-73
2022/03/28 05:09:33;;;;;;;32.28;16.50;;;3.30;90.50;;;;;;5218112;28;20049;-73
2022/03/28 05:12:06;;;;;;;36.65;16.55;;;3.30;90.70;;;;;;5219183;28;20049;-73
2022/03/28 05:14:39;;;;;;;33.35;16.83;;;3.20;91.00;;;;;;5222216;28;20048;-73
2022/03/28 05:17:11;;;;;;;29.77;16.15;;;3.30;91.00;;;;;;5225097;28;20904;-73
2022/03/28 05:19:44;;;;;;;40.55;16.63;;;3.30;91.00;;;;;;5217329;28;20053;-73
2022/03/28 05:22:17;;;;;;;30.48;16.35;;;3.30;91.30;;;;;;5207081;28;20052;-73
2022/03/28 05:24:52;;;;;;;38.42;16.17;;;3.40;91.20;;;;;;5203729;28;20049;-73
2022/03/28 05:27:25;;;;;;;32.33;17.45;;;3.40;91.30;;;;;;5206308;28;20047;-73
2022/03/28 05:29:59;;;;;;;35.70;16.50;;;3.40;91.10;;;;;;5228209;28;20064;-73
2022/03/28 05:32:32;;;;;;;33.85;16.55;;;3.50;91.60;;;;;;5224637;28;20048;-73
2022/03/28 05:35:06;;;;;;;34.55;15.80;;;3.60;91.00;;;;;;5217864;28;20056;-73
2022/03/28 05:37:39;;;;;;;;;;;3.60;91.00;;;;;;5207384;28;20067;-73
2022/03/28 05:40:13;;;;;;;31.13;16.10;;;3.50;96.00;;;;;;5198832;28;19931;-73
2022/03/28 05:42:45;;;;;;;39.20;15.90;;;3.60;90.60;;;;;;5233804;28;20349;-74
2022/03/28 05:45:18;;;;;;;33.60;16.63;;;3.70;91.00;;;;;;5232753;28;20037;-73
2022/03/28 05:47:51;;;;;;;36.08;16.52;;;3.70;91.20;;;;;;5209352;28;20110;-73
2022/03/28 05:50:23;;;;;;;36.75;16.77;;;3.80;91.20;;;;;;5231451;28;20041;-73
2022/03/28 05:52:55;;;;;;;34.78;17.85;;;3.90;91.30;;;;;;5229952;28;20052;-73
2022/03/28 05:55:28;;;;;;;34.38;17.73;;;4.00;91.30;;;;;;5232225;28;20049;-73
2022/03/28 05:58:01;;;;;;;31.83;16.67;;;4.10;91.10;;;;;;5231159;28;20059;-73
2022/03/28 06:00:34;;;;;;;34.40;16.65;;;4.20;91.00;;;;;;5223748;28;20678;-73
2022/03/28 06:03:08;;;;;;;35.10;16.63;;;4.30;90.80;;;;;;5212474;28;20049;-73
2022/03/28 06:06:03;;;;;;;33.17;16.42;;;4.40;90.70;;;;;;5230329;28;20037;-73
2022/03/28 06:08:35;;;;;;;35.08;17.00;;;4.50;90.40;;;;;;5229692;28;20049;-73
2022/03/28 06:11:08;;;;;;;40.88;17.13;;;4.70;90.20;;;;;;5230029;28;20040;-73
2022/03/28 06:13:42;;;;;;;40.55;17.70;;;4.80;90.00;;;;;;5231622;28;20695;-73
2022/03/28 06:16:14;;;;;;;40.20;17.20;;;5.00;89.60;;;;;;5231134;28;20041;-73
2022/03/28 06:18:47;;;;;;;38.95;17.60;;;5.10;89.10;;;;;;5231167;28;20059;-72
2022/03/28 06:21:20;;;;;;;31.88;15.98;;;5.20;88.60;;;;;;5232830;28;20044;-74
2022/03/28 06:23:55;;;;;;;36.75;17.58;;;5.40;88.00;;;;;;5215428;28;20055;-74
2022/03/28 06:26:28;;;;;;;39.17;17.70;;;5.60;87.30;;;;;;5231552;28;20048;-74
2022/03/28 06:29:00;;;;;;;37.55;16.85;;;5.70;86.70;;;;;;5230066;28;20048;-74
2022/03/28 06:31:32;;;;;;;35.28;17.45;;;5.90;86.20;;;;;;5211056;28;20057;-74
2022/03/28 06:34:05;;;;;;;31.90;15.95;;;6.00;85.70;;;;;;5230855;28;20044;-74
2022/03/28 06:36:38;;;;;;;33.35;16.73;;;6.10;84.90;;;;;;5233251;28;20041;-74
2022/03/28 06:39:11;;;;;;;32.40;16.77;;;6.30;84.60;;;;;;5230773;28;20041;-74
2022/03/28 06:41:44;;;;;;;38.45;17.08;;;6.50;83.90;;;;;;5229274;28;20052;-74
2022/03/28 06:44:21;;;;;;;30.05;15.07;;;6.70;82.60;;;;;;5220443;28;20063;-73
2022/03/28 06:46:53;;;;;;;32.83;16.38;;;6.80;81.90;;;;;;5229695;28;20041;-74
2022/03/28 06:49:26;;;;;;;30.27;16.15;;;7.00;81.50;;;;;;5210342;28;20056;-74
2022/03/28 06:51:58;;;;;;;37.60;16.48;;;7.20;81.00;;;;;;5224329;28;20055;-74
2022/03/28 06:54:31;;;;;;;34.90;15.80;;;7.40;80.60;;;;;;5214162;28;20053;-74
2022/03/28 06:57:03;;;;;;;46.80;16.75;;;7.70;80.10;;;;;;5229226;28;20042;-74
2022/03/28 06:59:36;;;;;;;38.70;16.75;;;7.90;79.40;;;;;;5231397;28;20041;-74
2022/03/28 07:02:08;;;;;;;31.80;15.27;;;8.10;78.50;;;;;;5215729;28;20075;-74
2022/03/28 07:04:41;;;;;;;34.17;16.42;;;8.30;77.60;;;;;;5230513;28;20052;-74
2022/03/28 07:07:13;;;;;;;28.83;15.13;;;8.50;76.50;;;;;;5230255;28;20060;-74
2022/03/28 07:09:45;;;;;;;30.70;14.35;;;8.80;76.20;;;;;;5228823;28;20048;-74
2022/03/28 07:12:18;;;;;;;26.17;13.65;;;9.00;75.00;;;;;;5212747;28;20040;-74
2022/03/28 07:14:50;;;;;;;27.08;14.93;;;9.30;74.30;;;;;;5230174;28;20041;-74
2022/03/28 07:17:22;;;;;;;26.15;13.60;;;9.50;72.30;;;;;;5217601;28;20753;-74
2022/03/28 07:19:55;;;;;;;25.52;13.82;;;9.80;71.00;;;;;;5216137;28;20049;-74
2022/03/28 07:22:27;;;;;;;30.73;14.40;;;9.90;70.40;;;;;;5231129;28;20059;-75
2022/03/28 07:25:00;;;;;;;39.33;14.55;;;10.10;70.00;;;;;;5230814;28;20049;-74
2022/03/28 07:27:39;;;;;;;27.15;13.55;;;10.20;69.20;;;;;;5213721;28;20053;-74
2022/03/28 07:30:14;;;;;;;29.63;14.05;;;10.40;68.50;;;;;;5232243;28;20041;-74
2022/03/28 07:32:47;;;;;;;24.08;13.57;;;10.60;68.50;;;;;;5232092;28;20049;-74
2022/03/28 07:35:21;;;;;;;24.27;14.75;;;10.80;67.40;;;;;;5231222;28;20049;-75
2022/03/28 07:37:53;;;;;;;22.95;13.60;;;10.90;67.20;;;;;;5196279;28;20045;-74
2022/03/28 07:40:26;;;;;;;29.48;13.18;;;11.10;66.70;;;;;;5217491;28;20072;-74
2022/03/28 07:42:58;;;;;;;28.60;14.07;;;11.20;66.10;;;;;;5232530;28;20045;-74
2022/03/28 07:45:31;;;;;;;30.65;13.90;;;11.40;65.80;;;;;;5230351;28;20053;-75
2022/03/28 07:48:06;;;;;;;25.63;14.83;;;11.60;65.70;;;;;;5232497;28;20063;-74
2022/03/28 07:50:39;;;;;;;32.00;14.55;;;11.80;65.00;;;;;;5231844;28;20056;-74
2022/03/28 07:53:12;;;;;;;29.37;14.00;;;11.90;64.40;;;;;;5212609;28;20439;-74
2022/03/28 07:55:45;;;;;;;26.30;14.03;;;12.10;64.20;;;;;;5246467;22;20048;-79
2022/03/28 07:58:17;;;;;;;23.58;12.75;;;12.20;62.90;;;;;;5270803;28;20482;-78
2022/03/28 08:00:50;;;;;;;22.05;13.23;;;12.40;62.20;;;;;;5252456;28;20048;-78
2022/03/28 08:03:22;;;;;;;25.75;12.63;;;12.60;61.40;;;;;;5248481;28;20040;-79
2022/03/28 08:05:55;;;;;;;24.42;12.48;;;12.70;61.00;;;;;;5260634;28;20048;-78
2022/03/28 08:08:28;;;;;;;22.08;12.60;;;12.90;60.90;;;;;;5255407;28;20036;-77
2022/03/28 08:11:01;;;;;;;22.15;13.57;;;13.00;60.60;;;;;;5244477;28;20040;-77
2022/03/28 08:13:36;;;;;;;24.52;13.40;;;13.10;59.60;;;;;;5273389;28;20047;-77
2022/03/28 08:16:09;;;;;;;26.17;13.07;;;13.20;59.00;;;;;;5241335;28;20438;-79
2022/03/28 08:18:42;;;;;;;23.47;13.80;;;13.30;59.10;;;;;;5260344;28;20048;-78
2022/03/28 08:21:14;;;;;;;24.80;13.15;;;13.40;58.80;;;;;;5251054;28;20290;-79
2022/03/28 08:23:46;;;;;;;22.23;12.90;;;13.50;58.60;;;;;;5263863;28;20423;-79
2022/03/28 08:26:20;;;;;;;21.00;13.10;;;13.60;58.00;;;;;;5251614;28;20051;-77
2022/03/28 08:28:53;;;;;;;25.67;13.93;;;13.70;57.90;;;;;;5269778;28;20055;-78
2022/03/28 08:31:25;;;;;;;25.92;14.25;;;13.80;57.20;;;;;;5277012;22;20043;-75
2022/03/28 08:33:58;;;;;;;26.13;13.60;;;13.80;57.30;;;;;;5279453;27;20039;-74
2022/03/28 08:36:30;;;;;;;24.55;14.07;;;13.90;57.30;;;;;;5265920;28;20054;-75
2022/03/28 08:39:04;;;;;;;22.95;13.52;;;13.90;57.30;;;;;;5277969;27;20048;-74
2022/03/28 08:41:37;;;;;;;;;;;14.00;56.80;;;;;;5277595;27;20150;-75
2022/03/28 08:44:09;;;;;;;30.60;14.38;;;13.90;56.50;;;;;;5294832;22;20630;-74
2022/03/28 08:46:44;;;;;;;27.75;14.10;;;13.90;57.20;;;;;;5260487;28;20047;-75
2022/03/28 08:49:18;;;;;;;29.67;15.15;;;14.10;57.30;;;;;;5273133;28;20040;-75
2022/03/28 08:51:54;;;;;;;28.05;15.15;;;14.10;56.80;;;;;;5271275;28;20048;-74
2022/03/28 08:54:26;;;;;;;27.10;14.20;;;14.10;56.90;;;;;;5257650;28;20407;-74
2022/03/28 08:56:59;;;;;;;28.63;15.18;;;14.10;57.10;;;;;;5272189;28;20047;-74
2022/03/28 08:59:31;;;;;;;30.40;16.42;;;14.20;57.20;;;;;;5273360;28;20047;-74
2022/03/28 09:02:03;;;;;;;32.97;16.23;;;14.30;56.90;;;;;;5238440;28;20066;-75
2022/03/28 09:04:47;;;;;;;32.17;15.15;;;14.40;56.50;;;;;;5274282;28;20059;-75
2022/03/28 09:07:25;;;;;;;30.52;16.50;;;14.40;56.10;;;;;;5273350;28;20066;-74
2022/03/28 09:10:07;;;;;;;26.25;14.93;;;14.50;56.30;;;;;;5272152;28;20055;-74
2022/03/28 09:13:03;;;;;;;35.75;16.25;;;14.80;55.70;;;;;;5226823;28;20054;-75
2022/03/28 09:15:56;;;;;;;36.30;17.30;;;14.80;55.50;;;;;;5241137;28;20421;-74
2022/03/28 09:18:35;;;;;;;34.08;15.98;;;14.80;54.10;;;;;;5255402;28;20051;-75
2022/03/28 09:21:16;;;;;;;34.92;16.88;;;14.80;54.50;;;;;;5273197;28;20051;-74
2022/03/28 09:23:49;;;;;;;36.08;16.25;;;14.80;54.60;;;;;;5261505;28;20059;-74
2022/03/28 09:26:24;;;;;;;34.28;15.73;;;14.90;54.60;;;;;;5262385;28;20054;-74
2022/03/28 09:29:00;;;;;;;30.75;15.63;;;14.90;54.30;;;;;;5273077;28;20056;-74
2022/03/28 09:31:37;;;;;;;39.97;17.38;;;15.00;54.20;;;;;;5273329;28;20051;-74
2022/03/28 09:34:17;;;;;;;35.25;15.88;;;15.20;53.60;;;;;;5274666;28;20411;-74
2022/03/28 09:36:50;;;;;;;39.45;17.73;;;15.10;53.40;;;;;;5273321;28;20047;-73
2022/03/28 09:39:22;;;;;;;36.15;15.85;;;15.20;53.50;;;;;;5275184;28;20058;-74
2022/03/28 09:42:07;;;;;;;33.70;16.35;;;15.30;53.60;;;;;;5269963;28;20043;-74
2022/03/28 09:44:48;;;;;;;38.08;17.33;;;15.40;53.60;;;;;;5275161;28;20044;-74
2022/03/28 09:47:23;;;;;;;32.13;16.95;;;15.50;52.60;;;;;;5261206;28;20059;-75
2022/03/28 09:49:57;;;;;;;32.50;16.85;;;15.60;52.60;;;;;;5273106;28;20519;-74
2022/03/28 09:52:30;;;;;;;37.45;17.17;;;15.60;52.60;;;;;;5273638;28;20044;-74
2022/03/28 09:55:05;;;;;;;35.95;17.83;;;15.60;52.60;;;;;;5273243;28;20048;-74
2022/03/28 09:57:38;;;;;;;32.00;16.73;;;15.70;52.70;;;;;;5272096;28;20066;-74
2022/03/28 10:00:19;;;;;;;33.60;16.40;;;15.70;52.40;;;;;;5254740;28;20048;-75
2022/03/28 10:02:52;;;;;;;34.28;17.15;;;15.80;52.20;;;;;;5255006;28;20060;-75
2022/03/28 10:05:24;;;;;;;33.70;17.48;;;15.90;51.80;;;;;;5271848;28;20419;-74
2022/03/28 10:07:59;;;;;;;35.30;16.75;;;16.00;52.30;;;;;;5273243;28;20068;-74
2022/03/28 10:10:31;;;;;;;41.17;18.15;;;16.10;52.10;;;;;;5261244;28;20044;-74
2022/03/28 10:13:04;;;;;;;35.85;17.30;;;16.10;51.30;;;;;;5273846;28;20052;-75
2022/03/28 10:15:37;;;;;;;38.88;18.75;;;16.10;51.80;;;;;;5258939;28;20044;-75
2022/03/28 10:18:09;;;;;;;33.67;16.58;;;16.40;51.50;;;;;;5254480;28;20540;-74
2022/03/28 10:20:45;;;;;;;38.90;18.67;;;16.50;51.00;;;;;;5275112;27;20035;-74
2022/03/28 10:23:18;;;;;;;34.22;17.65;;;16.60;50.50;;;;;;5274272;28;20051;-75
2022/03/28 10:25:54;;;;;;;34.45;17.70;;;16.60;50.50;;;;;;5271752;28;20409;-75
2022/03/28 10:28:27;;;;;;;35.40;17.70;;;16.70;50.00;;;;;;5251994;28;20407;-74
2022/03/28 10:31:15;;;;;;;35.85;18.80;;;16.70;50.10;;;;;;5253967;28;20046;-73
2022/03/28 10:34:08;;;;;;;40.03;18.20;;;16.90;48.90;;;;;;5273727;28;20125;-73
2022/03/28 10:36:41;;;;;;;43.88;17.95;;;16.90;49.60;;;;;;5277034;27;20052;-73
2022/03/28 10:39:34;;;;;;;37.35;18.15;;;17.00;49.40;;;;;;5260974;28;20048;-76
2022/03/28 10:42:25;;;;;;;36.55;19.25;;;17.10;49.20;;;;;;5277471;28;20051;-74
2022/03/28 10:45:05;;;;;;;28.52;16.42;;;17.10;47.70;;;;;;5281986;28;20048;-74
2022/03/28 10:47:52;;;;;;;33.75;17.48;;;17.20;48.90;;;;;;5274729;28;20048;-75
2022/03/28 10:50:48;;;;;;;35.97;18.90;;;17.30;48.90;;;;;;5274593;28;20056;-75
2022/03/28 10:53:31;;;;;;;36.30;17.17;;;17.50;47.90;;;;;;5275285;28;20526;-74
2022/03/28 10:56:10;;;;;;;37.47;19.03;;;17.70;47.00;;;;;;5259740;28;20044;-75
2022/03/28 10:58:52;;;;;;;32.40;16.95;;;17.70;47.30;;;;;;5274054;28;20048;-75
2022/03/28 11:01:42;;;;;;;37.35;17.63;;;17.80;47.50;;;;;;5251943;28;20058;-75
2022/03/28 11:04:15;;;;;;;31.58;18.48;;;17.90;46.30;;;;;;5255424;28;20040;-76
2022/03/28 11:07:03;;;;;;;32.78;17.10;;;18.00;47.60;;;;;;5270753;28;20777;-76
2022/03/28 11:09:42;;;;;;;29.73;16.77;;;18.10;47.30;;;;;;5272311;28;20031;-75
2022/03/28 11:12:16;;;;;;;33.10;17.25;;;18.30;46.10;;;;;;5272837;28;20036;-76
2022/03/28 11:14:51;;;;;;;39.33;18.40;;;18.30;46.20;;;;;;5256758;28;20044;-75
2022/03/28 11:17:34;;;;;;;34.60;17.33;;;18.40;46.20;;;;;;5271833;28;20047;-76
2022/03/28 11:20:08;;;;;;;32.50;19.30;;;18.50;45.60;;;;;;5263642;28;20051;-76
2022/03/28 11:22:50;;;;;;;33.10;17.73;;;18.50;45.80;;;;;;5237414;28;20043;-74
2022/03/28 11:25:37;;;;;;;36.08;17.42;;;18.60;45.10;;;;;;5266893;28;20040;-74
2022/03/28 11:28:22;;;;;;;31.98;16.77;;;18.90;44.40;;;;;;5269121;28;20044;-74
2022/03/28 11:31:06;;;;;;;37.65;17.23;;;19.30;43.20;;;;;;5264514;28;20068;-74
2022/03/28 11:33:42;;;;;;;25.98;15.77;;;19.60;43.40;;;;;;5267226;28;20437;-74
2022/03/28 11:36:20;;;;;;;29.73;16.45;;;20.10;43.40;;;;;;5259119;28;20032;-75
2022/03/28 11:38:55;;;;;;;26.70;16.50;;;20.60;42.10;;;;;;5250137;28;20036;-76
2022/03/28 11:41:28;;;;;;;30.60;17.65;;;21.20;41.70;;;;;;5271854;28;20044;-75
2022/03/28 11:44:04;;;;;;;31.93;16.70;;;21.80;42.10;;;;;;5270387;28;20073;-75
2022/03/28 11:46:36;;;;;;;30.63;17.10;;;22.50;39.90;;;;;;5269442;28;20308;-75
2022/03/28 11:49:11;;;;;;;30.92;18.17;;;22.70;39.30;;;;;;5269004;28;20052;-74
2022/03/28 11:51:44;;;;;;;27.75;17.27;;;23.00;39.10;;;;;;5272690;28;20051;-72
2022/03/28 11:54:18;;;;;;;31.52;16.83;;;23.00;38.40;;;;;;5269676;28;20040;-74
2022/03/28 11:59:42;;;;;;;32.80;17.17;;;23.70;37.90;;;;;;5272814;28;20043;-74
2022/03/28 12:02:15;;;;;;;26.90;16.90;;;23.80;37.80;;;;;;5252599;28;20055;-75
2022/03/28 12:04:49;;;;;;;28.63;17.87;;;24.00;37.20;;;;;;5251868;28;20047;-77
2022/03/28 12:07:33;;;;;;;27.13;17.75;;;24.40;36.70;;;;;;5256619;28;20051;-75
2022/03/28 12:10:08;;;;;;;;;;;24.70;35.90;;;;;;5257499;28;20044;-75
2022/03/28 12:12:41;;;;;;;25.80;16.02;;;24.80;35.70;;;;;;5274347;28;19927;-75
2022/03/28 12:15:23;;;;;;;22.98;15.75;;;24.80;36.40;;;;;;5252648;28;20732;-75
2022/03/28 12:17:58;;;;;;;26.92;15.70;;;25.40;35.10;;;;;;5272782;27;20031;-76
2022/03/28 12:20:38;;;;;;;28.67;15.60;;;25.40;35.10;;;;;;5257195;28;20047;-75
2022/03/28 12:23:13;;;;;;;25.75;16.48;;;25.40;33.80;;;;;;5259296;28;20047;-75
2022/03/28 12:25:50;;;;;;;23.10;14.90;;;25.60;34.10;;;;;;5275136;28;20040;-76
2022/03/28 12:28:27;;;;;;;31.30;16.58;;;25.90;33.40;;;;;;5253894;28;20791;-74
2022/03/28 12:31:02;;;;;;;26.15;16.15;;;25.70;32.80;;;;;;5273304;28;20562;-74
2022/03/28 12:33:41;;;;;;;27.55;16.42;;;25.90;33.50;;;;;;5247465;28;20075;-75
2022/03/28 12:36:24;;;;;;;25.15;15.95;;;26.00;32.80;;;;;;5260735;28;20039;-75
2022/03/28 12:39:02;;;;;;;27.38;15.18;;;25.90;32.40;;;;;;5270460;28;20055;-74
2022/03/28 12:42:02;;;;;;;30.60;15.57;;;26.00;32.80;;;;;;5260184;28;20070;-75
2022/03/28 12:44:35;;;;;;;27.65;15.88;;;26.60;31.60;;;;;;5246655;27;20048;-74
2022/03/28 12:47:08;;;;;;;28.88;16.17;;;26.70;32.30;;;;;;5261784;28;20046;-74
2022/03/28 12:49:43;;;;;;;28.13;16.00;;;26.70;32.70;;;;;;5260039;28;20059;-74
2022/03/28 12:52:22;;;;;;;23.48;15.63;;;26.90;31.80;;;;;;5225969;27;20036;-75
2022/03/28 12:54:55;;;;;;;28.83;15.35;;;27.00;31.80;;;;;;5266955;27;20054;-76
2022/03/28 12:57:30;;;;;;;;;;;27.10;31.10;;;;;;5250637;28;20051;-75
2022/03/28 13:00:03;;;;;;;25.10;15.02;;;26.90;29.10;;;;;;5270337;28;19920;-74
2022/03/28 13:02:49;;;;;;;22.48;14.85;;;26.50;30.60;;;;;;5247912;28;20660;-74
2022/03/28 13:05:24;;;;;;;24.45;14.48;;;26.20;28.30;;;;;;5236147;27;20419;-74
2022/03/28 13:08:07;;;;;;;20.08;13.40;;;25.90;29.90;;;;;;5232135;28;20487;-74
2022/03/28 13:10:42;;;;;;;23.40;13.52;;;26.20;29.00;;;;;;5265518;28;20052;-74
2022/03/28 13:13:32;;;;;;;21.23;13.18;;;26.70;30.20;;;;;;5253607;28;20075;-74
2022/03/28 13:16:06;;;;;;;25.75;15.52;;;26.60;29.60;;;;;;5267048;27;20027;-74